sensor_id;sensor_type;location;lat;lon;timestamp;P1;durP1;ratioP1;P2;durP2;ratioP2
19867;SDS011;10096;51.112;6.776;2023-11-21T00:02:24;15.02;;;12.35;;
19867;SDS011;10096;51.112;6.776;2023-11-21T00:04:53;15.18;;;11.35;;
19867;SDS011;10096;51.112;6.776;2023-11-21T00:07:20;18.10;;;11.73;;
19867;SDS011;10096;51.112;6.776;2023-11-21T00:09:47;18.20;;;10.57;;
19867;SDS011;10096;51.112;6.776;2023-11-21T00:12:16;16.40;;;11.43;;
19867;SDS011;10096;51.112;6.776;2023-11-21T00:14:43;14.98;;;11.70;;
19867;SDS011;10096;51.112;6.776;2023-11-21T00:17:10;14.48;;;10.55;;
19867;SDS011;10096;51.112;6.776;2023-11-21T00:19:39;12.07;;;9.15;;
19867;SDS011;10096;51.112;6.776;2023-11-21T00:22:07;19.33;;;14.70;;
19867;SDS011;10096;51.112;6.776;2023-11-21T00:24:36;20.00;;;15.23;;
19867;SDS011;10096;51.112;6.776;2023-11-21T00:27:03;12.70;;;10.00;;
19867;SDS011;10096;51.112;6.776;2023-11-21T00:29:32;11.57;;;9.52;;
19867;SDS011;10096;51.112;6.776;2023-11-21T00:31:59;14.25;;;9.35;;
19867;SDS011;10096;51.112;6.776;2023-11-21T00:34:26;13.25;;;8.50;;
19867;SDS011;10096;51.112;6.776;2023-11-21T00:36:53;14.53;;;9.33;;
19867;SDS011;10096;51.112;6.776;2023-11-21T00:39:20;11.57;;;9.07;;
19867;SDS011;10096;51.112;6.776;2023-11-21T00:41:47;13.67;;;8.53;;
19867;SDS011;10096;51.112;6.776;2023-11-21T00:44:14;12.13;;;8.30;;
19867;SDS011;10096;51.112;6.776;2023-11-21T00:49:25;13.20;;;8.13;;
19867;SDS011;10096;51.112;6.776;2023-11-21T00:51:53;12.40;;;8.17;;
19867;SDS011;10096;51.112;6.776;2023-11-21T00:54:20;11.40;;;7.97;;
19867;SDS011;10096;51.112;6.776;2023-11-21T00:56:47;14.07;;;8.80;;
19867;SDS011;10096;51.112;6.776;2023-11-21T00:59:14;11.43;;;8.97;;
19867;SDS011;10096;51.112;6.776;2023-11-21T01:01:41;15.17;;;8.93;;
19867;SDS011;10096;51.112;6.776;2023-11-21T01:04:09;15.27;;;8.63;;
19867;SDS011;10096;51.112;6.776;2023-11-21T01:06:38;13.60;;;8.47;;
19867;SDS011;10096;51.112;6.776;2023-11-21T01:09:05;15.60;;;8.87;;
19867;SDS011;10096;51.112;6.776;2023-11-21T01:11:33;13.67;;;9.43;;
19867;SDS011;10096;51.112;6.776;2023-11-21T01:14:02;14.27;;;8.47;;
19867;SDS011;10096;51.112;6.776;2023-11-21T01:16:29;13.60;;;8.40;;
19867;SDS011;10096;51.112;6.776;2023-11-21T01:18:57;12.00;;;9.13;;
19867;SDS011;10096;51.112;6.776;2023-11-21T01:21:26;12.83;;;7.90;;
19867;SDS011;10096;51.112;6.776;2023-11-21T01:23:54;11.53;;;9.20;;
19867;SDS011;10096;51.112;6.776;2023-11-21T01:26:21;12.80;;;9.00;;
19867;SDS011;10096;51.112;6.776;2023-11-21T01:28:48;11.23;;;8.43;;
19867;SDS011;10096;51.112;6.776;2023-11-21T01:31:15;12.23;;;9.00;;
19867;SDS011;10096;51.112;6.776;2023-11-21T01:33:42;11.50;;;8.53;;
19867;SDS011;10096;51.112;6.776;2023-11-21T01:36:09;11.47;;;8.77;;
19867;SDS011;10096;51.112;6.776;2023-11-21T01:38:38;15.63;;;9.70;;
19867;SDS011;10096;51.112;6.776;2023-11-21T01:41:07;13.00;;;9.70;;
19867;SDS011;10096;51.112;6.776;2023-11-21T01:43:36;13.87;;;8.80;;
19867;SDS011;10096;51.112;6.776;2023-11-21T01:46:03;13.50;;;8.93;;
19867;SDS011;10096;51.112;6.776;2023-11-21T01:48:31;14.33;;;10.03;;
19867;SDS011;10096;51.112;6.776;2023-11-21T01:50:59;14.03;;;9.67;;
19867;SDS011;10096;51.112;6.776;2023-11-21T01:53:27;13.23;;;9.80;;
19867;SDS011;10096;51.112;6.776;2023-11-21T01:55:56;13.50;;;10.93;;
19867;SDS011;10096;51.112;6.776;2023-11-21T01:58:24;17.17;;;10.77;;
19867;SDS011;10096;51.112;6.776;2023-11-21T02:00:52;13.40;;;10.40;;
19867;SDS011;10096;51.112;6.776;2023-11-21T02:03:20;14.03;;;9.87;;
19867;SDS011;10096;51.112;6.776;2023-11-21T02:05:47;15.73;;;10.60;;
19867;SDS011;10096;51.112;6.776;2023-11-21T02:08:14;15.60;;;10.70;;
19867;SDS011;10096;51.112;6.776;2023-11-21T02:10:41;16.30;;;10.20;;
19867;SDS011;10096;51.112;6.776;2023-11-21T02:13:10;13.50;;;10.30;;
19867;SDS011;10096;51.112;6.776;2023-11-21T02:15:37;12.77;;;10.03;;
19867;SDS011;10096;51.112;6.776;2023-11-21T02:18:04;13.57;;;10.00;;
19867;SDS011;10096;51.112;6.776;2023-11-21T02:20:33;12.17;;;10.17;;
19867;SDS011;10096;51.112;6.776;2023-11-21T02:23:03;15.13;;;10.20;;
19867;SDS011;10096;51.112;6.776;2023-11-21T02:25:31;15.40;;;10.53;;
19867;SDS011;10096;51.112;6.776;2023-11-21T02:27:59;14.30;;;10.87;;
19867;SDS011;10096;51.112;6.776;2023-11-21T02:30:28;13.60;;;10.27;;
19867;SDS011;10096;51.112;6.776;2023-11-21T02:32:57;13.73;;;10.60;;
19867;SDS011;10096;51.112;6.776;2023-11-21T02:35:25;12.93;;;9.97;;
19867;SDS011;10096;51.112;6.776;2023-11-21T02:37:52;16.43;;;12.07;;
19867;SDS011;10096;51.112;6.776;2023-11-21T02:40:21;14.30;;;12.67;;
19867;SDS011;10096;51.112;6.776;2023-11-21T02:42:53;14.70;;;11.73;;
19867;SDS011;10096;51.112;6.776;2023-11-21T02:45:22;18.57;;;13.30;;
19867;SDS011;10096;51.112;6.776;2023-11-21T02:47:55;18.80;;;13.07;;
19867;SDS011;10096;51.112;6.776;2023-11-21T02:50:22;16.47;;;12.90;;
19867;SDS011;10096;51.112;6.776;2023-11-21T02:52:49;17.37;;;12.97;;
19867;SDS011;10096;51.112;6.776;2023-11-21T02:55:16;18.13;;;13.73;;
19867;SDS011;10096;51.112;6.776;2023-11-21T02:57:45;20.23;;;13.43;;
19867;SDS011;10096;51.112;6.776;2023-11-21T03:00:12;20.63;;;14.13;;
19867;SDS011;10096;51.112;6.776;2023-11-21T03:02:40;21.67;;;13.37;;
19867;SDS011;10096;51.112;6.776;2023-11-21T03:05:07;18.87;;;14.90;;
19867;SDS011;10096;51.112;6.776;2023-11-21T03:07:36;21.10;;;14.63;;
19867;SDS011;10096;51.112;6.776;2023-11-21T03:10:03;17.37;;;13.63;;
19867;SDS011;10096;51.112;6.776;2023-11-21T03:12:30;20.00;;;14.23;;
19867;SDS011;10096;51.112;6.776;2023-11-21T03:14:59;25.83;;;18.30;;
19867;SDS011;10096;51.112;6.776;2023-11-21T03:17:29;18.57;;;14.73;;
19867;SDS011;10096;51.112;6.776;2023-11-21T03:19:58;23.17;;;17.90;;
19867;SDS011;10096;51.112;6.776;2023-11-21T03:22:26;21.23;;;16.30;;
19867;SDS011;10096;51.112;6.776;2023-11-21T03:24:53;23.73;;;16.97;;
19867;SDS011;10096;51.112;6.776;2023-11-21T03:27:20;21.07;;;16.07;;
19867;SDS011;10096;51.112;6.776;2023-11-21T03:29:48;23.77;;;16.77;;
19867;SDS011;10096;51.112;6.776;2023-11-21T03:32:21;21.53;;;16.47;;
19867;SDS011;10096;51.112;6.776;2023-11-21T03:34:53;23.00;;;16.43;;
19867;SDS011;10096;51.112;6.776;2023-11-21T03:37:22;21.17;;;15.90;;
19867;SDS011;10096;51.112;6.776;2023-11-21T03:39:50;20.07;;;16.07;;
19867;SDS011;10096;51.112;6.776;2023-11-21T03:42:26;24.43;;;16.33;;
19867;SDS011;10096;51.112;6.776;2023-11-21T03:45:04;19.97;;;16.67;;
19867;SDS011;10096;51.112;6.776;2023-11-21T03:47:34;22.37;;;16.40;;
19867;SDS011;10096;51.112;6.776;2023-11-21T03:50:00;18.67;;;15.50;;
19867;SDS011;10096;51.112;6.776;2023-11-21T03:52:28;21.63;;;16.73;;
19867;SDS011;10096;51.112;6.776;2023-11-21T03:54:59;21.37;;;17.03;;
19867;SDS011;10096;51.112;6.776;2023-11-21T03:57:26;20.70;;;16.37;;
19867;SDS011;10096;51.112;6.776;2023-11-21T03:59:53;24.63;;;18.17;;
19867;SDS011;10096;51.112;6.776;2023-11-21T04:02:21;22.03;;;17.23;;
19867;SDS011;10096;51.112;6.776;2023-11-21T04:04:49;20.83;;;16.50;;
19867;SDS011;10096;51.112;6.776;2023-11-21T04:07:16;21.37;;;17.23;;
19867;SDS011;10096;51.112;6.776;2023-11-21T04:09:46;22.77;;;17.40;;
19867;SDS011;10096;51.112;6.776;2023-11-21T04:12:16;26.20;;;18.47;;
19867;SDS011;10096;51.112;6.776;2023-11-21T04:14:44;27.53;;;18.37;;
19867;SDS011;10096;51.112;6.776;2023-11-21T04:17:12;24.07;;;17.93;;
19867;SDS011;10096;51.112;6.776;2023-11-21T04:19:40;25.63;;;19.70;;
19867;SDS011;10096;51.112;6.776;2023-11-21T04:22:09;21.70;;;17.50;;
19867;SDS011;10096;51.112;6.776;2023-11-21T04:24:35;22.03;;;18.17;;
19867;SDS011;10096;51.112;6.776;2023-11-21T04:27:02;25.03;;;19.13;;
19867;SDS011;10096;51.112;6.776;2023-11-21T04:29:30;23.70;;;20.03;;
19867;SDS011;10096;51.112;6.776;2023-11-21T04:31:57;23.50;;;18.50;;
19867;SDS011;10096;51.112;6.776;2023-11-21T04:34:24;25.87;;;19.87;;
19867;SDS011;10096;51.112;6.776;2023-11-21T04:36:51;25.73;;;18.70;;
19867;SDS011;10096;51.112;6.776;2023-11-21T04:39:20;26.73;;;18.93;;
19867;SDS011;10096;51.112;6.776;2023-11-21T04:41:47;27.33;;;19.70;;
19867;SDS011;10096;51.112;6.776;2023-11-21T04:44:14;26.60;;;18.73;;
19867;SDS011;10096;51.112;6.776;2023-11-21T04:46:42;26.70;;;19.53;;
19867;SDS011;10096;51.112;6.776;2023-11-21T04:49:09;25.97;;;18.53;;
19867;SDS011;10096;51.112;6.776;2023-11-21T04:51:36;26.07;;;19.17;;
19867;SDS011;10096;51.112;6.776;2023-11-21T04:54:04;27.30;;;19.53;;
19867;SDS011;10096;51.112;6.776;2023-11-21T04:56:33;28.03;;;19.07;;
19867;SDS011;10096;51.112;6.776;2023-11-21T04:59:03;26.47;;;19.17;;
19867;SDS011;10096;51.112;6.776;2023-11-21T05:01:36;24.10;;;17.93;;
19867;SDS011;10096;51.112;6.776;2023-11-21T05:04:04;23.60;;;19.90;;
19867;SDS011;10096;51.112;6.776;2023-11-21T05:06:31;26.73;;;19.13;;
19867;SDS011;10096;51.112;6.776;2023-11-21T05:09:00;27.17;;;19.33;;
19867;SDS011;10096;51.112;6.776;2023-11-21T05:11:28;23.67;;;17.93;;
19867;SDS011;10096;51.112;6.776;2023-11-21T05:13:57;25.43;;;19.20;;
19867;SDS011;10096;51.112;6.776;2023-11-21T05:16:26;28.77;;;19.00;;
19867;SDS011;10096;51.112;6.776;2023-11-21T05:18:55;24.47;;;18.83;;
19867;SDS011;10096;51.112;6.776;2023-11-21T05:21:25;28.23;;;19.40;;
19867;SDS011;10096;51.112;6.776;2023-11-21T05:23:55;26.83;;;19.37;;
19867;SDS011;10096;51.112;6.776;2023-11-21T05:26:22;30.67;;;19.23;;
19867;SDS011;10096;51.112;6.776;2023-11-21T05:28:49;26.43;;;18.70;;
19867;SDS011;10096;51.112;6.776;2023-11-21T05:31:17;29.47;;;19.63;;
19867;SDS011;10096;51.112;6.776;2023-11-21T05:33:44;27.90;;;17.93;;
19867;SDS011;10096;51.112;6.776;2023-11-21T05:36:11;25.80;;;17.87;;
19867;SDS011;10096;51.112;6.776;2023-11-21T05:38:38;31.63;;;19.23;;
19867;SDS011;10096;51.112;6.776;2023-11-21T05:41:06;27.83;;;20.33;;
19867;SDS011;10096;51.112;6.776;2023-11-21T05:43:39;31.03;;;19.83;;
19867;SDS011;10096;51.112;6.776;2023-11-21T05:46:09;25.33;;;18.83;;
19867;SDS011;10096;51.112;6.776;2023-11-21T05:48:40;27.70;;;19.33;;
19867;SDS011;10096;51.112;6.776;2023-11-21T05:51:07;27.77;;;18.23;;
19867;SDS011;10096;51.112;6.776;2023-11-21T05:53:37;29.50;;;18.97;;
19867;SDS011;10096;51.112;6.776;2023-11-21T05:56:05;29.03;;;19.57;;
19867;SDS011;10096;51.112;6.776;2023-11-21T05:58:35;33.67;;;22.13;;
19867;SDS011;10096;51.112;6.776;2023-11-21T06:01:05;29.00;;;19.60;;
19867;SDS011;10096;51.112;6.776;2023-11-21T06:03:34;32.93;;;21.33;;
19867;SDS011;10096;51.112;6.776;2023-11-21T06:06:03;33.87;;;22.17;;
19867;SDS011;10096;51.112;6.776;2023-11-21T06:08:30;32.13;;;23.40;;
19867;SDS011;10096;51.112;6.776;2023-11-21T06:10:58;41.60;;;25.37;;
19867;SDS011;10096;51.112;6.776;2023-11-21T06:13:25;37.37;;;24.10;;
19867;SDS011;10096;51.112;6.776;2023-11-21T06:15:52;38.60;;;25.07;;
19867;SDS011;10096;51.112;6.776;2023-11-21T06:18:20;35.90;;;24.23;;
19867;SDS011;10096;51.112;6.776;2023-11-21T06:20:53;34.60;;;23.13;;
19867;SDS011;10096;51.112;6.776;2023-11-21T06:23:22;36.17;;;23.27;;
19867;SDS011;10096;51.112;6.776;2023-11-21T06:25:49;34.37;;;22.80;;
19867;SDS011;10096;51.112;6.776;2023-11-21T06:28:16;34.87;;;24.27;;
19867;SDS011;10096;51.112;6.776;2023-11-21T06:30:43;38.07;;;24.47;;
19867;SDS011;10096;51.112;6.776;2023-11-21T06:33:11;34.33;;;22.13;;
19867;SDS011;10096;51.112;6.776;2023-11-21T06:35:38;36.37;;;24.73;;
19867;SDS011;10096;51.112;6.776;2023-11-21T06:38:06;34.87;;;23.77;;
19867;SDS011;10096;51.112;6.776;2023-11-21T06:40:35;42.20;;;26.70;;
19867;SDS011;10096;51.112;6.776;2023-11-21T06:43:03;40.80;;;25.67;;
19867;SDS011;10096;51.112;6.776;2023-11-21T06:45:32;41.70;;;25.60;;
19867;SDS011;10096;51.112;6.776;2023-11-21T06:48:02;40.00;;;24.43;;
19867;SDS011;10096;51.112;6.776;2023-11-21T06:50:38;39.13;;;24.93;;
19867;SDS011;10096;51.112;6.776;2023-11-21T06:53:08;38.63;;;25.07;;
19867;SDS011;10096;51.112;6.776;2023-11-21T06:55:40;37.20;;;24.83;;
19867;SDS011;10096;51.112;6.776;2023-11-21T06:58:07;36.10;;;24.77;;
19867;SDS011;10096;51.112;6.776;2023-11-21T07:00:34;39.80;;;24.53;;
19867;SDS011;10096;51.112;6.776;2023-11-21T07:03:01;45.37;;;28.17;;
19867;SDS011;10096;51.112;6.776;2023-11-21T07:05:28;47.23;;;29.17;;
19867;SDS011;10096;51.112;6.776;2023-11-21T07:07:55;38.73;;;24.60;;
19867;SDS011;10096;51.112;6.776;2023-11-21T07:10:22;37.87;;;24.67;;
19867;SDS011;10096;51.112;6.776;2023-11-21T07:12:53;39.43;;;25.27;;
19867;SDS011;10096;51.112;6.776;2023-11-21T07:15:22;36.63;;;24.07;;
19867;SDS011;10096;51.112;6.776;2023-11-21T07:17:51;39.40;;;24.60;;
19867;SDS011;10096;51.112;6.776;2023-11-21T07:20:19;39.83;;;24.87;;
19867;SDS011;10096;51.112;6.776;2023-11-21T07:22:47;36.30;;;23.10;;
19867;SDS011;10096;51.112;6.776;2023-11-21T07:25:15;34.60;;;23.23;;
19867;SDS011;10096;51.112;6.776;2023-11-21T07:27:47;30.00;;;22.73;;
19867;SDS011;10096;51.112;6.776;2023-11-21T07:30:16;37.10;;;23.90;;
19867;SDS011;10096;51.112;6.776;2023-11-21T07:32:47;33.80;;;21.87;;
19867;SDS011;10096;51.112;6.776;2023-11-21T07:35:16;32.70;;;23.00;;
19867;SDS011;10096;51.112;6.776;2023-11-21T07:37:44;34.27;;;23.90;;
19867;SDS011;10096;51.112;6.776;2023-11-21T07:40:20;36.67;;;23.23;;
19867;SDS011;10096;51.112;6.776;2023-11-21T07:42:50;34.70;;;24.13;;
19867;SDS011;10096;51.112;6.776;2023-11-21T07:45:18;37.20;;;23.67;;
19867;SDS011;10096;51.112;6.776;2023-11-21T07:47:47;37.80;;;24.70;;
19867;SDS011;10096;51.112;6.776;2023-11-21T07:50:20;33.53;;;23.90;;
19867;SDS011;10096;51.112;6.776;2023-11-21T07:52:48;33.80;;;22.58;;
19867;SDS011;10096;51.112;6.776;2023-11-21T07:55:15;32.22;;;23.25;;
19867;SDS011;10096;51.112;6.776;2023-11-21T07:57:42;34.73;;;23.10;;
19867;SDS011;10096;51.112;6.776;2023-11-21T08:00:10;34.28;;;23.52;;
19867;SDS011;10096;51.112;6.776;2023-11-21T08:02:42;40.55;;;24.65;;
19867;SDS011;10096;51.112;6.776;2023-11-21T08:05:12;38.83;;;25.40;;
19867;SDS011;10096;51.112;6.776;2023-11-21T08:07:40;39.30;;;25.33;;
19867;SDS011;10096;51.112;6.776;2023-11-21T08:10:08;35.67;;;24.77;;
19867;SDS011;10096;51.112;6.776;2023-11-21T08:12:36;42.47;;;28.35;;
19867;SDS011;10096;51.112;6.776;2023-11-21T08:15:04;43.13;;;25.50;;
19867;SDS011;10096;51.112;6.776;2023-11-21T08:17:32;44.57;;;25.03;;
19867;SDS011;10096;51.112;6.776;2023-11-21T08:20:01;40.60;;;24.50;;
19867;SDS011;10096;51.112;6.776;2023-11-21T08:22:28;40.92;;;23.90;;
19867;SDS011;10096;51.112;6.776;2023-11-21T08:25:00;38.75;;;23.48;;
19867;SDS011;10096;51.112;6.776;2023-11-21T08:27:32;44.47;;;25.13;;
19867;SDS011;10096;51.112;6.776;2023-11-21T08:30:01;38.77;;;24.67;;
19867;SDS011;10096;51.112;6.776;2023-11-21T08:32:28;38.28;;;24.98;;
19867;SDS011;10096;51.112;6.776;2023-11-21T08:34:57;44.80;;;26.17;;
19867;SDS011;10096;51.112;6.776;2023-11-21T08:37:26;43.57;;;24.27;;
19867;SDS011;10096;51.112;6.776;2023-11-21T08:39:57;40.50;;;25.05;;
19867;SDS011;10096;51.112;6.776;2023-11-21T08:42:25;39.47;;;25.15;;
19867;SDS011;10096;51.112;6.776;2023-11-21T08:44:56;40.47;;;23.25;;
19867;SDS011;10096;51.112;6.776;2023-11-21T08:47:23;37.22;;;21.85;;
19867;SDS011;10096;51.112;6.776;2023-11-21T08:49:51;40.28;;;22.35;;
19867;SDS011;10096;51.112;6.776;2023-11-21T08:52:18;40.97;;;23.47;;
19867;SDS011;10096;51.112;6.776;2023-11-21T08:54:49;38.07;;;21.97;;
19867;SDS011;10096;51.112;6.776;2023-11-21T08:57:20;33.50;;;20.03;;
19867;SDS011;10096;51.112;6.776;2023-11-21T08:59:48;39.20;;;22.47;;
19867;SDS011;10096;51.112;6.776;2023-11-21T09:02:22;40.15;;;23.02;;
19867;SDS011;10096;51.112;6.776;2023-11-21T09:04:55;38.00;;;21.98;;
19867;SDS011;10096;51.112;6.776;2023-11-21T09:07:28;38.30;;;22.63;;
19867;SDS011;10096;51.112;6.776;2023-11-21T09:10:13;36.53;;;22.30;;
19867;SDS011;10096;51.112;6.776;2023-11-21T09:12:41;38.08;;;21.08;;
19867;SDS011;10096;51.112;6.776;2023-11-21T09:15:08;34.88;;;21.45;;
19867;SDS011;10096;51.112;6.776;2023-11-21T09:17:36;40.55;;;22.48;;
19867;SDS011;10096;51.112;6.776;2023-11-21T09:20:05;36.72;;;22.48;;
19867;SDS011;10096;51.112;6.776;2023-11-21T09:22:35;46.63;;;26.23;;
19867;SDS011;10096;51.112;6.776;2023-11-21T09:25:02;38.50;;;23.67;;
19867;SDS011;10096;51.112;6.776;2023-11-21T09:27:31;38.17;;;24.02;;
19867;SDS011;10096;51.112;6.776;2023-11-21T09:29:59;39.17;;;23.83;;
19867;SDS011;10096;51.112;6.776;2023-11-21T09:32:26;42.25;;;23.45;;
19867;SDS011;10096;51.112;6.776;2023-11-21T09:34:53;40.43;;;23.97;;
19867;SDS011;10096;51.112;6.776;2023-11-21T09:37:23;38.38;;;21.90;;
19867;SDS011;10096;51.112;6.776;2023-11-21T09:39:52;47.67;;;25.10;;
19867;SDS011;10096;51.112;6.776;2023-11-21T09:42:22;45.25;;;24.13;;
19867;SDS011;10096;51.112;6.776;2023-11-21T09:44:58;42.85;;;23.48;;
19867;SDS011;10096;51.112;6.776;2023-11-21T09:47:41;43.45;;;25.30;;
19867;SDS011;10096;51.112;6.776;2023-11-21T09:50:11;40.80;;;23.50;;
19867;SDS011;10096;51.112;6.776;2023-11-21T09:52:48;45.00;;;25.60;;
19867;SDS011;10096;51.112;6.776;2023-11-21T09:55:20;43.85;;;24.15;;
19867;SDS011;10096;51.112;6.776;2023-11-21T09:57:54;40.50;;;23.37;;
19867;SDS011;10096;51.112;6.776;2023-11-21T10:00:26;46.30;;;28.65;;
19867;SDS011;10096;51.112;6.776;2023-11-21T10:02:53;38.97;;;22.95;;
19867;SDS011;10096;51.112;6.776;2023-11-21T10:05:22;42.75;;;24.70;;
19867;SDS011;10096;51.112;6.776;2023-11-21T10:07:49;46.13;;;23.17;;
19867;SDS011;10096;51.112;6.776;2023-11-21T10:10:18;35.90;;;22.05;;
19867;SDS011;10096;51.112;6.776;2023-11-21T10:12:48;36.78;;;23.05;;
19867;SDS011;10096;51.112;6.776;2023-11-21T10:15:20;34.03;;;22.70;;
19867;SDS011;10096;51.112;6.776;2023-11-21T10:18:01;37.83;;;23.10;;
19867;SDS011;10096;51.112;6.776;2023-11-21T10:20:31;36.22;;;21.55;;
19867;SDS011;10096;51.112;6.776;2023-11-21T10:23:00;37.70;;;21.27;;
19867;SDS011;10096;51.112;6.776;2023-11-21T10:25:29;38.28;;;23.25;;
19867;SDS011;10096;51.112;6.776;2023-11-21T10:27:57;37.35;;;21.83;;
19867;SDS011;10096;51.112;6.776;2023-11-21T10:30:30;37.55;;;22.20;;
19867;SDS011;10096;51.112;6.776;2023-11-21T10:33:09;36.75;;;22.15;;
19867;SDS011;10096;51.112;6.776;2023-11-21T10:35:44;36.03;;;21.67;;
19867;SDS011;10096;51.112;6.776;2023-11-21T10:38:15;43.30;;;22.42;;
19867;SDS011;10096;51.112;6.776;2023-11-21T10:40:43;37.60;;;22.33;;
19867;SDS011;10096;51.112;6.776;2023-11-21T10:43:14;37.35;;;22.77;;
19867;SDS011;10096;51.112;6.776;2023-11-21T10:45:42;39.33;;;20.98;;
19867;SDS011;10096;51.112;6.776;2023-11-21T10:48:12;31.00;;;19.80;;
19867;SDS011;10096;51.112;6.776;2023-11-21T10:50:40;35.50;;;20.30;;
19867;SDS011;10096;51.112;6.776;2023-11-21T10:53:12;36.65;;;19.27;;
19867;SDS011;10096;51.112;6.776;2023-11-21T10:55:42;32.13;;;17.33;;
19867;SDS011;10096;51.112;6.776;2023-11-21T10:58:10;30.50;;;18.50;;
19867;SDS011;10096;51.112;6.776;2023-11-21T11:00:40;30.15;;;20.50;;
19867;SDS011;10096;51.112;6.776;2023-11-21T11:03:11;32.13;;;19.80;;
19867;SDS011;10096;51.112;6.776;2023-11-21T11:05:39;29.67;;;18.65;;
19867;SDS011;10096;51.112;6.776;2023-11-21T11:08:12;25.65;;;17.02;;
19867;SDS011;10096;51.112;6.776;2023-11-21T11:10:44;29.90;;;16.50;;
19867;SDS011;10096;51.112;6.776;2023-11-21T11:13:13;29.48;;;17.88;;
19867;SDS011;10096;51.112;6.776;2023-11-21T11:15:41;28.80;;;18.77;;
19867;SDS011;10096;51.112;6.776;2023-11-21T11:18:09;28.50;;;17.35;;
19867;SDS011;10096;51.112;6.776;2023-11-21T11:20:42;26.70;;;16.50;;
19867;SDS011;10096;51.112;6.776;2023-11-21T11:23:17;27.48;;;17.42;;
19867;SDS011;10096;51.112;6.776;2023-11-21T11:26:08;29.33;;;17.52;;
19867;SDS011;10096;51.112;6.776;2023-11-21T11:28:47;26.80;;;17.58;;
19867;SDS011;10096;51.112;6.776;2023-11-21T11:31:26;31.23;;;17.63;;
19867;SDS011;10096;51.112;6.776;2023-11-21T11:34:06;25.80;;;17.67;;
19867;SDS011;10096;51.112;6.776;2023-11-21T11:36:52;29.73;;;17.98;;
19867;SDS011;10096;51.112;6.776;2023-11-21T11:39:27;30.40;;;18.40;;
19867;SDS011;10096;51.112;6.776;2023-11-21T11:41:55;30.60;;;18.58;;
19867;SDS011;10096;51.112;6.776;2023-11-21T11:47:20;32.08;;;19.33;;
19867;SDS011;10096;51.112;6.776;2023-11-21T11:49:57;31.88;;;18.83;;
19867;SDS011;10096;51.112;6.776;2023-11-21T11:52:48;29.48;;;18.38;;
19867;SDS011;10096;51.112;6.776;2023-11-21T11:55:18;37.42;;;19.73;;
19867;SDS011;10096;51.112;6.776;2023-11-21T11:57:48;29.38;;;20.77;;
19867;SDS011;10096;51.112;6.776;2023-11-21T12:00:17;31.40;;;22.25;;
19867;SDS011;10096;51.112;6.776;2023-11-21T12:02:50;38.22;;;22.98;;
19867;SDS011;10096;51.112;6.776;2023-11-21T12:05:19;32.17;;;21.65;;
19867;SDS011;10096;51.112;6.776;2023-11-21T12:07:53;33.53;;;22.42;;
19867;SDS011;10096;51.112;6.776;2023-11-21T12:10:22;31.75;;;20.83;;
19867;SDS011;10096;51.112;6.776;2023-11-21T12:12:51;30.80;;;21.63;;
19867;SDS011;10096;51.112;6.776;2023-11-21T12:15:19;32.15;;;19.30;;
19867;SDS011;10096;51.112;6.776;2023-11-21T12:17:47;34.97;;;20.88;;
19867;SDS011;10096;51.112;6.776;2023-11-21T12:20:15;32.88;;;19.42;;
19867;SDS011;10096;51.112;6.776;2023-11-21T12:22:48;34.47;;;19.98;;
19867;SDS011;10096;51.112;6.776;2023-11-21T12:25:35;31.00;;;18.23;;
19867;SDS011;10096;51.112;6.776;2023-11-21T12:28:04;33.05;;;19.60;;
19867;SDS011;10096;51.112;6.776;2023-11-21T12:30:31;31.45;;;19.42;;
19867;SDS011;10096;51.112;6.776;2023-11-21T12:33:00;29.50;;;18.05;;
19867;SDS011;10096;51.112;6.776;2023-11-21T12:35:29;25.92;;;17.58;;
19867;SDS011;10096;51.112;6.776;2023-11-21T12:38:00;24.38;;;15.85;;
19867;SDS011;10096;51.112;6.776;2023-11-21T12:40:28;30.95;;;15.23;;
19867;SDS011;10096;51.112;6.776;2023-11-21T12:42:56;26.45;;;16.17;;
19867;SDS011;10096;51.112;6.776;2023-11-21T12:45:27;23.25;;;14.88;;
19867;SDS011;10096;51.112;6.776;2023-11-21T12:47:57;25.77;;;15.85;;
19867;SDS011;10096;51.112;6.776;2023-11-21T12:50:28;26.52;;;14.60;;
19867;SDS011;10096;51.112;6.776;2023-11-21T12:52:58;27.48;;;16.30;;
19867;SDS011;10096;51.112;6.776;2023-11-21T12:55:30;27.83;;;15.88;;
19867;SDS011;10096;51.112;6.776;2023-11-21T12:58:02;26.17;;;16.67;;
19867;SDS011;10096;51.112;6.776;2023-11-21T13:00:34;28.67;;;16.63;;
19867;SDS011;10096;51.112;6.776;2023-11-21T13:03:03;24.02;;;15.90;;
19867;SDS011;10096;51.112;6.776;2023-11-21T13:05:34;27.92;;;16.77;;
19867;SDS011;10096;51.112;6.776;2023-11-21T13:08:07;28.65;;;16.60;;
19867;SDS011;10096;51.112;6.776;2023-11-21T13:10:38;30.35;;;17.08;;
19867;SDS011;10096;51.112;6.776;2023-11-21T13:13:08;27.77;;;16.55;;
19867;SDS011;10096;51.112;6.776;2023-11-21T13:15:47;30.05;;;17.42;;
19867;SDS011;10096;51.112;6.776;2023-11-21T13:18:15;30.58;;;17.00;;
19867;SDS011;10096;51.112;6.776;2023-11-21T13:20:43;26.27;;;16.00;;
19867;SDS011;10096;51.112;6.776;2023-11-21T13:23:13;28.75;;;16.15;;
19867;SDS011;10096;51.112;6.776;2023-11-21T13:25:41;27.85;;;15.65;;
19867;SDS011;10096;51.112;6.776;2023-11-21T13:28:10;26.23;;;15.57;;
19867;SDS011;10096;51.112;6.776;2023-11-21T13:30:40;22.88;;;16.08;;
19867;SDS011;10096;51.112;6.776;2023-11-21T13:33:09;24.00;;;15.73;;
19867;SDS011;10096;51.112;6.776;2023-11-21T13:35:52;24.60;;;15.70;;
19867;SDS011;10096;51.112;6.776;2023-11-21T13:38:22;28.23;;;15.13;;
19867;SDS011;10096;51.112;6.776;2023-11-21T13:40:50;25.92;;;16.02;;
19867;SDS011;10096;51.112;6.776;2023-11-21T13:43:19;25.27;;;16.67;;
19867;SDS011;10096;51.112;6.776;2023-11-21T13:45:49;29.83;;;17.73;;
19867;SDS011;10096;51.112;6.776;2023-11-21T13:48:26;28.33;;;17.73;;
19867;SDS011;10096;51.112;6.776;2023-11-21T13:50:59;26.02;;;16.92;;
19867;SDS011;10096;51.112;6.776;2023-11-21T13:53:43;28.45;;;17.60;;
19867;SDS011;10096;51.112;6.776;2023-11-21T13:56:13;28.00;;;17.95;;
19867;SDS011;10096;51.112;6.776;2023-11-21T13:58:44;29.45;;;17.27;;
19867;SDS011;10096;51.112;6.776;2023-11-21T14:01:19;29.75;;;17.70;;
19867;SDS011;10096;51.112;6.776;2023-11-21T14:04:10;25.83;;;16.65;;
19867;SDS011;10096;51.112;6.776;2023-11-21T14:06:45;33.45;;;20.52;;
19867;SDS011;10096;51.112;6.776;2023-11-21T14:09:15;28.85;;;17.30;;
19867;SDS011;10096;51.112;6.776;2023-11-21T14:11:50;28.17;;;17.85;;
19867;SDS011;10096;51.112;6.776;2023-11-21T14:14:18;29.15;;;17.38;;
19867;SDS011;10096;51.112;6.776;2023-11-21T14:16:46;28.73;;;18.17;;
19867;SDS011;10096;51.112;6.776;2023-11-21T14:19:16;26.27;;;18.05;;
19867;SDS011;10096;51.112;6.776;2023-11-21T14:21:43;31.50;;;18.15;;
19867;SDS011;10096;51.112;6.776;2023-11-21T14:24:13;28.08;;;17.08;;
19867;SDS011;10096;51.112;6.776;2023-11-21T14:26:43;28.30;;;17.08;;
19867;SDS011;10096;51.112;6.776;2023-11-21T14:29:12;28.83;;;17.25;;
19867;SDS011;10096;51.112;6.776;2023-11-21T14:31:41;30.27;;;16.92;;
19867;SDS011;10096;51.112;6.776;2023-11-21T14:34:08;30.13;;;17.98;;
19867;SDS011;10096;51.112;6.776;2023-11-21T14:36:37;29.63;;;18.52;;
19867;SDS011;10096;51.112;6.776;2023-11-21T14:39:06;28.98;;;18.92;;
19867;SDS011;10096;51.112;6.776;2023-11-21T14:41:41;27.30;;;18.17;;
19867;SDS011;10096;51.112;6.776;2023-11-21T14:44:09;28.92;;;19.35;;